Time;durP1;ratioP1;P1;durP2;ratioP2;P2;SDS_P1;SDS_P2;PMS_P1;PMS_P2;Temp;Humidity;BMP_temperature;BMP_pressure;BME280_temperature;BME280_humidity;BME280_pressure;Samples;Min_cycle;Max_cycle;Signal;HPM_P1;HPM_P2
2021/10/07 00:00:08;;;;;;;0.40;0.40;;;21.10;50.50;;;24.93;34.00;102019.50;5112997;28;20092;-11
2021/10/07 00:02:39;;;;;;;0.50;0.50;;;21.10;50.60;;;24.94;33.94;102031.94;5111679;28;20142;-12
2021/10/07 00:05:07;;;;;;;1.75;0.52;;;21.10;50.60;;;24.93;34.04;102026.69;5114264;28;20082;-11
2021/10/07 00:07:33;;;;;;;0.60;0.52;;;21.10;50.70;;;24.92;33.81;102030.28;5116489;28;20059;-11
2021/10/07 00:09:59;;;;;;;1.95;0.75;;;21.00;50.70;;;24.94;33.97;102031.06;5116525;28;20048;-12
2021/10/07 00:12:25;;;;;;;0.55;0.52;;;21.00;50.70;;;24.95;33.83;102030.13;5116784;28;20054;-11
2021/10/07 00:14:51;;;;;;;0.40;0.40;;;21.00;50.70;;;24.91;33.92;102029.44;5116887;28;20048;-11
2021/10/07 00:17:17;;;;;;;0.60;0.60;;;21.10;50.60;;;24.92;33.86;102039.16;5116508;28;20043;-11
2021/10/07 00:19:43;;;;;;;0.40;0.40;;;21.10;50.70;;;24.93;33.84;102043.59;5116202;28;20200;-12
2021/10/07 00:22:09;;;;;;;0.70;0.63;;;21.10;50.60;;;24.90;33.74;102046.44;5116510;28;20039;-11
2021/10/07 00:24:35;;;;;;;0.65;0.60;;;21.00;50.50;;;24.93;33.90;102059.63;5116345;28;20082;-11
2021/10/07 00:27:00;;;;;;;0.50;0.50;;;21.00;50.60;;;24.93;33.90;102066.81;5116437;28;20062;-11
2021/10/07 00:32:05;;;;;;;0.50;0.50;;;21.00;50.70;;;24.94;33.70;102063.16;5116299;28;20496;-11
2021/10/07 00:37:19;;;;;;;0.55;0.45;;;21.00;50.70;;;24.92;33.95;102065.06;5116839;28;20101;-11
2021/10/07 00:39:45;;;;;;;0.50;0.50;;;21.00;50.70;;;24.91;33.86;102069.56;5116445;28;20056;-11
2021/10/07 00:42:11;;;;;;;0.80;0.60;;;21.00;50.70;;;24.91;33.96;102072.25;5116430;28;20394;-11
2021/10/07 00:44:39;;;;;;;0.50;0.50;;;21.00;50.70;;;24.91;33.88;102074.06;5116294;28;20444;-11
2021/10/07 00:47:06;;;;;;;0.57;0.50;;;21.00;50.60;;;24.88;33.94;102067.06;5115908;28;20067;-12
2021/10/07 00:49:33;;;;;;;0.70;0.70;;;21.00;50.70;;;24.91;34.00;102079.44;5116042;28;20048;-11
2021/10/07 00:52:00;;;;;;;0.60;0.60;;;21.00;51.30;;;24.89;33.98;102078.63;5115782;28;20051;-11
2021/10/07 00:54:27;;;;;;;0.68;0.60;;;21.00;50.70;;;24.90;33.97;102078.53;5115848;28;20068;-11
2021/10/07 00:56:55;;;;;;;0.60;0.60;;;21.00;50.70;;;24.91;33.81;102084.78;5115695;28;20384;-12
2021/10/07 00:59:21;;;;;;;0.60;0.60;;;21.00;50.70;;;24.88;33.92;102079.59;5116131;28;20051;-11
2021/10/07 01:01:47;;;;;;;0.47;0.45;;;21.00;50.70;;;24.90;33.78;102085.72;5115790;28;20134;-11
2021/10/07 01:04:14;;;;;;;0.60;0.60;;;21.00;50.70;;;24.88;33.86;102082.28;5115763;28;20544;-12
2021/10/07 01:06:42;;;;;;;0.73;0.70;;;21.00;50.70;;;24.88;33.70;102090.31;5115641;28;20523;-12
2021/10/07 01:09:09;;;;;;;0.50;0.50;;;21.00;50.70;;;24.88;33.79;102082.28;5115680;28;20076;-11
2021/10/07 01:11:35;;;;;;;1.27;0.60;;;21.00;50.80;;;24.89;33.96;102092.00;5097898;28;20093;-11
2021/10/07 01:14:01;;;;;;;0.68;0.60;;;21.00;50.80;;;24.88;33.91;102091.16;5115546;28;20048;-12
2021/10/07 01:16:27;;;;;;;0.60;0.60;;;21.00;50.70;;;24.86;33.89;102087.72;5096433;28;20099;-11
2021/10/07 01:18:54;;;;;;;0.50;0.50;;;20.90;50.80;;;24.86;33.83;102095.75;5115576;28;20083;-12
2021/10/07 01:21:20;;;;;;;0.90;0.68;;;20.90;50.80;;;24.86;33.84;102094.84;5115534;28;20043;-11
2021/10/07 01:23:48;;;;;;;1.08;0.60;;;20.90;50.80;;;24.88;34.00;102090.31;5115776;28;20075;-12
2021/10/07 01:26:19;;;;;;;0.57;0.50;;;20.90;50.90;;;24.87;33.86;102085.91;5115409;28;20082;-12
2021/10/07 01:28:49;;;;;;;0.47;0.47;;;20.90;50.90;;;24.86;33.85;102087.72;5115666;28;20079;-12
2021/10/07 01:31:15;;;;;;;0.50;0.50;;;20.90;50.90;;;24.86;33.88;102097.53;5115181;28;20079;-11
2021/10/07 01:33:42;;;;;;;0.60;0.57;;;20.90;51.00;;;24.85;34.11;102091.34;5096998;28;20047;-11
2021/10/07 01:36:08;;;;;;;0.57;0.57;;;20.90;51.00;;;24.86;33.97;102089.50;5097049;28;20457;-11
2021/10/07 01:38:34;;;;;;;0.40;0.40;;;20.90;50.90;;;24.84;33.95;102089.63;5115054;28;20040;-12
2021/10/07 01:41:00;;;;;;;0.57;0.57;;;20.90;50.90;;;24.84;34.08;102084.28;5115626;28;20391;-11
2021/10/07 01:43:26;;;;;;;0.50;0.50;;;20.90;51.00;;;24.84;33.87;102092.31;5115174;28;20050;-11
2021/10/07 01:45:52;;;;;;;0.50;0.50;;;20.90;51.00;;;24.83;33.88;102090.56;5115151;28;20131;-11
2021/10/07 01:48:18;;;;;;;0.50;0.50;;;20.90;50.90;;;24.82;33.99;102094.19;5115081;28;20055;-11
2021/10/07 01:50:46;;;;;;;0.50;0.50;;;20.90;50.90;;;24.84;33.93;102091.41;5114881;28;20050;-11
2021/10/07 01:53:12;;;;;;;0.82;0.82;;;20.90;50.90;;;24.81;34.01;102092.47;5115010;28;20047;-12
2021/10/07 01:55:38;;;;;;;0.60;0.60;;;20.90;50.90;;;24.84;34.03;102097.66;5114984;28;20052;-11
2021/10/07 01:58:04;;;;;;;0.60;0.60;;;20.90;50.80;;;24.83;34.12;102103.09;5115126;28;20068;-11
2021/10/07 02:00:30;;;;;;;0.50;0.50;;;20.90;50.70;;;24.83;33.94;102095.06;5115147;28;20116;-12
2021/10/07 02:02:56;;;;;;;0.55;0.55;;;20.90;50.80;;;24.82;34.18;102107.56;5114959;28;20048;-11
2021/10/07 02:05:22;;;;;;;0.50;0.50;;;20.90;50.80;;;24.84;34.04;102108.34;5114856;28;20076;-12
2021/10/07 02:07:47;;;;;;;0.55;0.55;;;20.90;50.70;;;24.82;33.89;102102.22;5115022;28;20055;-11
2021/10/07 02:10:17;;;;;;;0.50;0.50;;;20.90;50.70;;;24.84;33.86;102111.03;5114720;28;20043;-11
2021/10/07 02:12:47;;;;;;;0.50;0.50;;;21.00;50.70;;;24.84;34.08;102115.50;5114750;28;20043;-11
2021/10/07 02:15:14;;;;;;;0.57;0.50;;;20.90;50.70;;;24.83;33.99;102109.28;5115056;28;20131;-11
2021/10/07 02:17:41;;;;;;;0.50;0.50;;;20.90;50.70;;;24.83;33.88;102116.47;5113039;28;20510;-11
2021/10/07 02:20:10;;;;;;;0.52;0.52;;;20.90;50.70;;;24.82;33.98;102115.59;5114476;28;20052;-12
2021/10/07 02:22:37;;;;;;;0.93;0.50;;;21.00;50.70;;;24.84;33.91;102124.41;5096237;28;20403;-11
2021/10/07 02:25:04;;;;;;;0.57;0.57;;;21.00;50.70;;;24.83;33.93;102119.16;5114497;28;20050;-11
2021/10/07 02:27:30;;;;;;;0.40;0.40;;;20.90;50.70;;;24.83;33.87;102116.47;5114804;28;20487;-11
2021/10/07 02:29:56;;;;;;;0.50;0.50;;;20.90;50.70;;;24.82;34.06;102120.94;5114277;28;20537;-11
2021/10/07 02:32:22;;;;;;;0.40;0.40;;;20.90;50.70;;;24.81;33.88;102119.22;5114577;28;20097;-12
2021/10/07 02:34:48;;;;;;;0.50;0.50;;;20.90;50.60;;;24.83;33.93;102130.69;5114239;28;20081;-11
2021/10/07 02:37:14;;;;;;;0.50;0.50;;;20.90;50.70;;;24.81;34.04;102132.59;5114662;28;20048;-12
2021/10/07 02:39:39;;;;;;;0.50;0.50;;;20.90;50.70;;;24.81;34.16;102137.97;5114141;28;20054;-11
2021/10/07 02:42:07;;;;;;;0.60;0.60;;;21.00;50.70;;;24.81;34.19;102142.41;5114280;28;20047;-12
2021/10/07 02:44:33;;;;;;;0.63;0.60;;;20.90;50.60;;;24.80;33.97;102146.06;5113940;28;20463;-11
2021/10/07 02:46:59;;;;;;;0.60;0.60;;;21.00;50.60;;;24.82;34.04;102155.72;5096003;28;20044;-12
2021/10/07 02:49:24;;;;;;;0.40;0.40;;;20.90;50.80;;;24.80;34.05;102156.78;5114097;28;20039;-11
2021/10/07 02:51:51;;;;;;;0.93;0.68;;;20.80;51.00;;;24.81;34.00;102155.78;5114041;28;20503;-12
2021/10/07 02:54:17;;;;;;;0.40;0.40;;;20.70;51.20;;;24.81;34.01;102159.34;5113960;28;20131;-11
2021/10/07 02:56:43;;;;;;;0.57;0.57;;;20.70;51.30;;;24.80;34.18;102151.41;5114082;28;20047;-12
2021/10/07 02:59:09;;;;;;;0.60;0.60;;;20.70;51.20;;;24.83;33.90;102159.28;5114553;28;20414;-11
2021/10/07 03:01:34;;;;;;;0.50;0.50;;;20.70;51.20;;;24.82;34.06;102160.22;5113989;28;20047;-11
2021/10/07 03:04:00;;;;;;;0.77;0.60;;;20.70;51.30;;;24.83;34.18;102167.28;5114413;28;20047;-11
2021/10/07 03:06:26;;;;;;;0.50;0.50;;;20.70;51.20;;;24.86;33.97;102170.66;5114055;28;20051;-11
2021/10/07 03:08:52;;;;;;;0.50;0.50;;;20.70;51.20;;;24.85;34.16;102173.41;5113809;28;20040;-11
2021/10/07 03:11:18;;;;;;;0.55;0.50;;;20.80;51.20;;;24.87;34.17;102185.72;5113703;28;20043;-11
2021/10/07 03:13:43;;;;;;;0.45;0.45;;;20.80;51.20;;;24.86;34.07;102176.00;5113714;28;20058;-11
2021/10/07 03:16:10;;;;;;;0.47;0.43;;;20.80;51.10;;;24.91;33.98;102184.63;5113725;28;20051;-11
2021/10/07 03:18:36;;;;;;;0.50;0.50;;;20.80;51.00;;;24.91;33.99;102187.28;5113708;28;20537;-11
2021/10/07 03:21:02;;;;;;;0.60;0.60;;;20.90;51.00;;;24.94;33.96;102192.47;5113499;28;20055;-12
2021/10/07 03:23:29;;;;;;;0.60;0.60;;;20.90;51.00;;;24.97;34.08;102199.44;5113340;28;20055;-11
2021/10/07 03:25:54;;;;;;;0.60;0.50;;;20.90;50.90;;;24.99;34.09;102189.50;5113840;28;20052;-11
2021/10/07 03:28:20;;;;;;;0.50;0.50;;;21.00;50.90;;;25.02;33.89;102201.88;5113953;28;20111;-12
2021/10/07 03:30:46;;;;;;;1.08;0.50;;;21.00;50.80;;;25.02;33.91;102200.03;5113255;28;20399;-11
2021/10/07 03:33:12;;;;;;;0.50;0.50;;;21.00;50.70;;;25.04;33.91;102198.16;5113467;28;20047;-11
2021/10/07 03:35:38;;;;;;;0.50;0.50;;;21.00;50.70;;;25.09;33.89;102203.22;5113624;28;20073;-12
2021/10/07 03:38:05;;;;;;;1.38;0.57;;;21.10;50.60;;;25.10;33.81;102207.63;5113413;28;20410;-12
2021/10/07 03:40:31;;;;;;;0.70;0.50;;;21.10;50.50;;;25.11;33.88;102202.19;5112567;28;20063;-11
2021/10/07 03:42:57;;;;;;;0.45;0.45;;;21.10;50.50;;;25.12;33.89;102206.56;5113354;28;20130;-12
2021/10/07 03:45:23;;;;;;;0.40;0.40;;;21.10;50.40;;;25.17;33.79;102218.84;5113298;28;20066;-11
2021/10/07 03:47:49;;;;;;;0.50;0.50;;;21.20;50.40;;;25.16;33.73;102215.31;5113185;28;20431;-22
2021/10/07 03:50:15;;;;;;;0.93;0.68;;;21.20;50.40;;;25.15;33.80;102211.75;5113077;28;20044;-12
2021/10/07 03:52:41;;;;;;;0.43;0.43;;;21.20;50.30;;;25.18;33.75;102218.75;5113055;28;20518;-11
2021/10/07 03:55:07;;;;;;;0.73;0.47;;;21.20;50.30;;;25.20;33.57;102226.69;5113776;28;20048;-11
2021/10/07 03:57:33;;;;;;;0.50;0.50;;;21.20;50.30;;;25.21;33.73;102228.41;5113360;28;20391;-12
2021/10/07 03:59:59;;;;;;;0.40;0.40;;;21.20;50.30;;;25.18;33.63;102234.81;5113106;28;20047;-12
2021/10/07 04:02:25;;;;;;;0.70;0.70;;;21.20;50.40;;;25.19;33.58;102235.66;5113556;28;20047;-12
2021/10/07 04:04:51;;;;;;;0.50;0.50;;;21.20;50.20;;;25.19;33.37;102241.88;5111091;28;20063;-12
2021/10/07 04:07:18;;;;;;;0.50;0.50;;;21.20;50.10;;;25.21;33.48;102241.78;5112861;28;20101;-12
2021/10/07 04:09:44;;;;;;;0.45;0.40;;;21.30;50.00;;;25.19;33.58;102241.88;5112758;28;20075;-11
2021/10/07 04:12:10;;;;;;;1.85;0.65;;;21.30;50.00;;;25.20;33.63;102248.09;5112943;28;20044;-11
2021/10/07 04:14:35;;;;;;;1.02;0.75;;;21.30;50.10;;;25.19;33.42;102252.56;5112823;28;20043;-12
2021/10/07 04:17:01;;;;;;;0.50;0.50;;;21.30;50.00;;;25.18;33.62;102252.69;5112731;28;20043;-12
2021/10/07 04:19:28;;;;;;;0.55;0.52;;;21.20;50.10;;;25.19;33.40;102257.06;5112803;28;20039;-11
2021/10/07 04:21:54;;;;;;;0.60;0.60;;;21.20;50.10;;;25.17;33.48;102267.03;5113058;28;20387;-12
2021/10/07 04:24:19;;;;;;;0.50;0.50;;;21.20;50.20;;;25.17;33.54;102265.19;5112810;28;20047;-12
2021/10/07 04:26:45;;;;;;;0.55;0.55;;;21.20;50.10;;;25.18;33.49;102271.44;5113120;28;20044;-12
2021/10/07 04:29:11;;;;;;;0.65;0.50;;;21.20;50.10;;;25.14;33.49;102274.28;5112631;28;20501;-11
2021/10/07 04:31:38;;;;;;;0.50;0.50;;;21.20;50.30;;;25.15;33.63;102277.81;5112819;28;20094;-11
2021/10/07 04:34:06;;;;;;;0.63;0.60;;;21.10;50.40;;;25.15;33.56;102288.53;5112533;28;20075;-11
2021/10/07 04:36:33;;;;;;;0.60;0.60;;;21.10;50.50;;;25.14;33.32;102285.00;5112889;28;20101;-11
2021/10/07 04:38:59;;;;;;;0.60;0.50;;;21.00;50.70;;;25.13;33.65;102287.75;5094158;28;20051;-11
2021/10/07 04:41:25;;;;;;;0.60;0.55;;;21.10;50.40;;;25.13;33.58;102290.44;5112861;28;20063;-11
2021/10/07 04:43:50;;;;;;;0.40;0.40;;;21.10;50.30;;;25.11;33.42;102300.38;5112745;28;20053;-11
2021/10/07 04:46:18;;;;;;;0.50;0.50;;;21.20;50.20;;;25.12;33.64;102300.25;5112466;28;20076;-12
2021/10/07 04:48:45;;;;;;;0.40;0.40;;;21.20;50.10;;;25.10;33.57;102302.16;5112867;28;20055;-11
2021/10/07 04:51:10;;;;;;;0.50;0.50;;;21.20;50.00;;;25.10;33.57;102302.16;5114261;28;20044;-11
2021/10/07 04:53:36;;;;;;;0.55;0.50;;;21.30;50.00;;;25.09;33.56;102313.84;5115811;28;20073;-11
2021/10/07 04:56:02;;;;;;;0.50;0.50;;;21.20;50.00;;;25.09;33.50;102312.94;5113942;28;20051;-11
2021/10/07 04:58:28;;;;;;;0.50;0.50;;;21.20;50.00;;;25.06;33.51;102311.31;5115826;28;20059;-11
2021/10/07 05:00:54;;;;;;;0.50;0.50;;;21.20;50.00;;;25.07;33.66;102322.88;5115893;28;20134;-12
2021/10/07 05:03:20;;;;;;;1.33;0.70;;;21.20;50.10;;;25.06;33.68;102318.47;5115899;28;20091;-12
2021/10/07 05:05:46;;;;;;;0.50;0.50;;;21.10;50.30;;;25.03;33.72;102324.88;5115590;28;20065;-11
2021/10/07 05:08:12;;;;;;;0.50;0.50;;;21.00;50.50;;;25.04;33.80;102326.63;5115870;28;20047;-11
2021/10/07 05:10:38;;;;;;;0.90;0.50;;;20.90;51.00;;;25.03;33.50;102340.06;5115700;28;20479;-11
2021/10/07 05:13:05;;;;;;;0.63;0.63;;;20.90;50.90;;;25.00;33.75;102345.59;5115628;28;20052;-11
2021/10/07 05:15:31;;;;;;;0.75;0.63;;;20.80;50.90;;;24.99;33.67;102346.53;5115689;28;20082;-11
2021/10/07 05:17:57;;;;;;;0.93;0.50;;;20.90;50.80;;;25.00;33.83;102356.31;5115416;28;20613;-11
2021/10/07 05:20:23;;;;;;;0.65;0.65;;;20.90;50.90;;;25.01;33.62;102356.22;5115522;28;20083;-12
2021/10/07 05:22:48;;;;;;;0.50;0.50;;;20.90;50.90;;;25.02;33.73;102362.41;5115510;28;20078;-11
2021/10/07 05:25:14;;;;;;;0.60;0.60;;;20.90;50.90;;;25.00;33.58;102362.50;5115501;28;20044;-11
2021/10/07 05:27:40;;;;;;;0.60;0.60;;;20.90;50.80;;;25.00;33.79;102362.50;5115405;28;20036;-11
2021/10/07 05:30:08;;;;;;;0.50;0.50;;;20.90;50.80;;;25.03;33.74;102365.00;5115391;28;20043;-12
2021/10/07 05:32:35;;;;;;;0.50;0.50;;;20.90;50.80;;;25.02;33.74;102371.31;5115384;28;20071;-11
2021/10/07 05:35:03;;;;;;;0.50;0.40;;;20.90;50.70;;;25.03;33.78;102373.03;5115285;28;20078;-12
2021/10/07 05:37:29;;;;;;;0.75;0.75;;;20.90;50.70;;;25.05;33.76;102372.97;5115317;28;20050;-11
2021/10/07 05:39:56;;;;;;;0.50;0.50;;;21.00;50.80;;;25.05;33.82;102389.00;5115774;28;20063;-11
2021/10/07 05:42:22;;;;;;;0.63;0.60;;;21.00;50.70;;;25.07;33.63;102387.97;5115164;28;20082;-11
2021/10/07 05:44:48;;;;;;;1.88;0.65;;;21.00;50.60;;;25.06;33.79;102385.38;5115303;28;20471;-12
2021/10/07 05:47:13;;;;;;;0.50;0.50;;;21.00;50.50;;;25.10;33.71;102390.47;5115043;28;20054;-11
2021/10/07 05:49:39;;;;;;;0.70;0.70;;;21.00;50.40;;;25.09;33.58;102388.78;5115676;28;20070;-11
2021/10/07 05:52:05;;;;;;;0.52;0.52;;;21.10;50.40;;;25.14;33.56;102394.72;5094464;28;20104;-11
2021/10/07 05:54:32;;;;;;;0.68;0.68;;;21.10;50.30;;;25.17;33.62;102388.31;5115520;28;20039;-11
2021/10/07 05:56:57;;;;;;;0.60;0.60;;;21.20;50.20;;;25.24;33.59;102397.75;5115306;28;20206;-12
2021/10/07 05:59:23;;;;;;;0.52;0.50;;;21.30;50.10;;;25.27;33.64;102404.78;5114791;28;20055;-12
2021/10/07 06:01:50;;;;;;;0.50;0.50;;;21.30;49.90;;;25.32;33.61;102400.88;5096620;28;20040;-11
2021/10/07 06:04:16;;;;;;;0.60;0.60;;;21.40;49.80;;;25.37;33.52;102403.28;5114846;28;20069;-11
2021/10/07 06:06:45;;;;;;;0.60;0.60;;;21.50;49.60;;;25.42;33.38;102413.75;5114633;28;20120;-11
2021/10/07 06:09:12;;;;;;;0.50;0.50;;;21.50;49.50;;;25.46;33.40;102417.97;5114594;28;20134;-11
2021/10/07 06:11:37;;;;;;;0.50;0.50;;;21.60;49.30;;;25.51;33.30;102418.59;5114568;28;20047;-11
2021/10/07 06:14:05;;;;;;;0.52;0.52;;;21.70;49.20;;;25.56;33.22;102418.31;5114610;28;20051;-12
2021/10/07 06:16:33;;;;;;;0.73;0.70;;;21.70;49.00;;;25.59;33.03;102416.31;5114717;28;20062;-11
2021/10/07 06:19:03;;;;;;;0.50;0.50;;;21.80;49.00;;;25.63;33.12;102430.44;5114828;28;20434;-11
2021/10/07 06:21:30;;;;;;;0.60;0.60;;;21.80;48.90;;;25.66;33.01;102427.53;5114415;28;20112;-11
2021/10/07 06:23:55;;;;;;;0.57;0.55;;;21.80;48.90;;;25.69;33.03;102432.72;5114585;28;20507;-12
2021/10/07 06:26:22;;;;;;;0.60;0.60;;;21.80;48.90;;;25.74;32.87;102437.84;5114501;28;20040;-11
2021/10/07 06:28:49;;;;;;;0.77;0.65;;;21.90;48.70;;;25.79;33.00;102441.09;5112777;28;20050;-11
2021/10/07 06:31:16;;;;;;;0.50;0.50;;;21.90;48.50;;;25.81;32.87;102441.88;5130073;28;20488;-12
2021/10/07 06:33:42;;;;;;;0.85;0.68;;;22.10;48.40;;;25.86;32.84;102443.34;5095987;28;20043;-12
2021/10/07 06:36:08;;;;;;;0.50;0.50;;;22.10;48.20;;;25.88;32.98;102444.13;5114314;28;20044;-12
2021/10/07 06:38:34;;;;;;;0.68;0.50;;;22.20;47.90;;;25.93;32.70;102446.53;5114150;28;20051;-11
2021/10/07 06:41:00;;;;;;;1.02;0.70;;;22.30;47.70;;;25.98;32.61;102455.22;5114182;28;20085;-11
2021/10/07 06:43:25;;;;;;;0.73;0.63;;;22.30;47.70;;;26.03;32.58;102458.47;5096140;28;20051;-11
2021/10/07 06:45:51;;;;;;;0.50;0.50;;;22.30;47.50;;;26.08;32.38;102466.25;5114109;28;20456;-11
2021/10/07 06:48:17;;;;;;;0.50;0.50;;;22.40;47.60;;;26.10;32.53;102467.03;5114004;28;20047;-11
2021/10/07 06:50:43;;;;;;;0.60;0.60;;;22.40;47.50;;;26.14;32.32;102465.88;5113828;28;20050;-11
2021/10/07 06:53:09;;;;;;;0.50;0.50;;;22.50;47.30;;;26.15;32.46;102470.28;5114111;28;20047;-12
2021/10/07 06:55:36;;;;;;;0.40;0.40;;;22.50;47.20;;;26.20;32.39;102476.25;5114213;28;20039;-11
2021/10/07 06:58:02;;;;;;;0.60;0.60;;;22.50;47.20;;;26.21;32.28;102478.00;5114162;28;20048;-12
2021/10/07 07:00:28;;;;;;;0.50;0.50;;;22.50;47.40;;;26.21;32.22;102478.00;5113807;28;20050;-11
2021/10/07 07:02:55;;;;;;;0.68;0.57;;;22.40;47.40;;;26.26;32.10;102485.72;5113857;28;20050;-11
2021/10/07 07:05:22;;;;;;;0.50;0.50;;;22.40;47.40;;;26.27;32.08;102483.94;5113880;28;20047;-11
2021/10/07 07:07:48;;;;;;;0.63;0.60;;;22.40;47.40;;;26.30;32.20;102491.81;5114134;28;20126;-11
2021/10/07 07:10:19;;;;;;;0.70;0.70;;;22.40;47.30;;;26.32;32.05;102495.25;5114027;28;20039;-11
2021/10/07 07:12:50;;;;;;;0.60;0.60;;;22.50;47.30;;;26.32;32.19;102488.06;5113830;28;20101;-11
2021/10/07 07:15:18;;;;;;;0.60;0.60;;;22.50;47.20;;;26.36;32.07;102504.84;5112695;28;20479;-11
2021/10/07 07:17:44;;;;;;;0.60;0.60;;;22.50;47.30;;;26.37;32.11;102504.75;5113958;28;20083;-11
2021/10/07 07:20:11;;;;;;;0.75;0.75;;;22.50;47.20;;;26.36;31.96;102500.34;5113732;28;20395;-11
2021/10/07 07:22:38;;;;;;;0.50;0.47;;;22.50;47.30;;;26.37;31.91;102502.06;5113524;28;20556;-11
2021/10/07 07:25:07;;;;;;;0.68;0.60;;;22.50;47.30;;;26.39;31.98;102508.19;5113514;28;20499;-11
2021/10/07 07:27:34;;;;;;;1.23;0.60;;;22.50;47.20;;;26.41;32.00;102511.66;5113376;28;20040;-11
2021/10/07 07:30:04;;;;;;;0.60;0.60;;;22.50;47.30;;;26.38;31.90;102503.81;5113431;28;20052;-11
2021/10/07 07:32:33;;;;;;;0.55;0.55;;;22.40;47.40;;;26.40;31.89;102517.97;5094979;28;20138;-11
2021/10/07 07:34:58;;;;;;;0.60;0.60;;;22.40;47.40;;;26.40;31.89;102514.44;5113734;28;20109;-11
2021/10/07 07:37:24;;;;;;;0.60;0.60;;;22.40;47.40;;;26.40;31.94;102522.47;5113296;28;20048;-11
2021/10/07 07:39:50;;;;;;;1.30;0.90;;;22.40;47.30;;;26.39;31.92;102524.28;5113191;28;20064;-11
2021/10/07 07:42:16;;;;;;;1.10;0.70;;;22.40;47.50;;;26.37;31.67;102528.88;5113214;28;20097;-20
2021/10/07 07:44:42;;;;;;;0.60;0.60;;;22.30;47.50;;;26.36;31.78;102527.16;5113217;28;20105;-12
2021/10/07 07:47:08;;;;;;;1.00;0.77;;;22.30;47.60;;;26.33;31.76;102524.66;5092383;28;20062;-12
2021/10/07 07:49:34;;;;;;;0.80;0.70;;;22.30;47.70;;;26.33;31.79;102538.06;5113425;28;20071;-12
2021/10/07 07:52:00;;;;;;;0.50;0.50;;;22.20;47.70;;;26.29;31.85;102533.81;5092867;28;20399;-12
2021/10/07 07:54:26;;;;;;;0.77;0.77;;;22.20;47.80;;;26.28;31.80;102536.59;5113396;28;20047;-11
2021/10/07 07:56:52;;;;;;;0.60;0.60;;;22.20;47.80;;;26.26;31.78;102528.63;5112989;28;20051;-11
2021/10/07 07:59:17;;;;;;;0.73;0.73;;;22.20;47.80;;;26.25;31.68;102530.47;5113126;28;20063;-11
2021/10/07 08:01:43;;;;;;;0.70;0.60;;;22.10;47.80;;;26.23;31.80;102540.44;5112936;28;20594;-11
2021/10/07 08:04:09;;;;;;;0.52;0.52;;;22.10;48.00;;;26.19;31.65;102538.84;5113021;28;20399;-11
2021/10/07 08:06:36;;;;;;;0.77;0.70;;;22.10;47.90;;;26.18;31.79;102539.81;5112960;28;20065;-11
2021/10/07 08:09:04;;;;;;;0.98;0.75;;;22.10;47.80;;;26.16;31.83;102548.91;5110867;28;20043;-12
2021/10/07 08:11:31;;;;;;;1.92;0.70;;;22.20;47.90;;;26.15;31.95;102539.16;5113142;28;20051;-11
2021/10/07 08:13:58;;;;;;;0.60;0.60;;;22.10;48.00;;;26.14;31.94;102545.44;5112925;28;20139;-11
2021/10/07 08:16:26;;;;;;;0.75;0.75;;;22.10;48.20;;;26.10;32.10;102544.75;5112870;28;20056;-12
2021/10/07 08:18:52;;;;;;;0.75;0.70;;;22.10;48.10;;;26.10;31.90;102543.91;5112573;28;20492;-11
2021/10/07 08:21:18;;;;;;;2.88;0.68;;;22.00;48.20;;;26.03;31.93;102538.03;5112912;28;20057;-12
2021/10/07 08:23:44;;;;;;;1.00;0.80;;;21.90;48.50;;;26.02;31.92;102547.88;5112672;28;20044;-11
2021/10/07 08:26:11;;;;;;;0.60;0.60;;;21.90;48.50;;;26.00;32.00;102543.56;5114079;28;20048;-12
2021/10/07 08:28:37;;;;;;;0.73;0.63;;;21.90;48.50;;;25.98;31.95;102550.84;5116258;28;20518;-11
2021/10/07 08:31:04;;;;;;;1.48;0.70;;;21.90;48.40;;;25.97;32.14;102549.09;5116165;28;20047;-12
2021/10/07 08:33:29;;;;;;;0.80;0.73;;;21.90;48.40;;;25.94;32.16;102547.41;5116268;28;20063;-11
2021/10/07 08:35:56;;;;;;;0.93;0.68;;;21.80;48.70;;;25.88;31.94;102545.97;5116840;28;20040;-12
2021/10/07 08:38:21;;;;;;;1.50;0.73;;;21.70;48.90;;;25.86;32.26;102558.59;5116116;28;20055;-20
2021/10/07 08:40:48;;;;;;;1.00;0.70;;;21.70;49.60;;;25.84;32.24;102552.44;5116063;28;20043;-11
2021/10/07 08:43:14;;;;;;;0.68;0.68;;;21.60;49.10;;;25.83;32.26;102548.03;5116152;28;20047;-12
2021/10/07 08:45:40;;;;;;;1.05;0.70;;;21.60;49.10;;;25.81;32.34;102554.41;5116161;28;20407;-12
2021/10/07 08:48:08;;;;;;;0.70;0.60;;;21.60;49.10;;;25.81;32.29;102557.09;5115895;28;20448;-12
2021/10/07 08:50:34;;;;;;;1.10;0.65;;;21.60;49.10;;;25.77;32.33;102553.72;5115828;28;20051;-11
2021/10/07 08:53:00;;;;;;;1.20;0.70;;;21.60;49.20;;;25.79;32.27;102553.66;5115995;28;20048;-11
2021/10/07 08:55:26;;;;;;;1.13;0.82;;;21.70;49.00;;;25.78;32.34;102551.94;5116305;28;20112;-11
2021/10/07 08:57:51;;;;;;;1.77;0.80;;;21.70;48.80;;;25.79;32.23;102559.00;5116122;28;20054;-11
2021/10/07 09:00:18;;;;;;;0.70;0.63;;;21.70;48.80;;;25.77;32.42;102559.09;5115705;28;20054;-11
2021/10/07 09:02:43;;;;;;;0.77;0.75;;;21.70;48.90;;;25.77;32.36;102567.13;5116095;28;20490;-11
2021/10/07 09:05:26;;;;;;;1.67;0.70;;;21.80;48.80;;;25.76;32.49;102567.22;5116137;28;20060;-11
2021/10/07 09:08:02;;;;;;;0.60;0.60;;;21.70;48.80;;;25.72;32.38;102560.31;5116035;28;20048;-11
2021/10/07 09:10:47;;;;;;;0.70;0.70;;;21.70;49.30;;;25.74;32.41;102558.41;5115694;28;20098;-11
2021/10/07 09:13:20;;;;;;;0.95;0.88;;;21.80;48.80;;;25.73;32.40;102553.97;5114144;28;20373;-11
2021/10/07 09:15:51;;;;;;;3.13;0.90;;;21.70;48.80;;;25.69;32.42;102556.84;5115591;28;20075;-11
2021/10/07 09:18:19;;;;;;;0.60;0.60;;;21.70;48.80;;;25.70;32.34;102555.03;5115307;28;20047;-11
2021/10/07 09:20:49;;;;;;;0.77;0.70;;;21.70;48.90;;;25.69;32.53;102561.31;5115562;28;20040;-11
2021/10/07 09:23:34;;;;;;;0.80;0.80;;;21.70;49.00;;;25.69;32.52;102555.97;5115471;28;20048;-11
2021/10/07 09:26:11;;;;;;;2.30;0.80;;;21.60;48.90;;;25.66;32.45;102559.69;5115734;28;20088;-11
2021/10/07 09:28:57;;;;;;;1.17;0.80;;;21.60;49.00;;;25.66;32.64;102565.06;5096835;28;20100;-11
2021/10/07 09:31:26;;;;;;;0.73;0.70;;;21.60;49.00;;;25.69;32.55;102572.03;5115802;28;20138;-11
2021/10/07 09:33:58;;;;;;;1.23;0.80;;;21.60;49.00;;;25.64;32.57;102563.41;5115919;28;20090;-11
2021/10/07 09:36:24;;;;;;;1.02;0.80;;;21.60;49.10;;;25.66;32.46;102566.84;5115285;28;20050;-12
2021/10/07 09:38:52;;;;;;;1.75;0.95;;;21.60;49.00;;;25.68;32.62;102576.53;5130104;27;20043;-12
2021/10/07 09:41:25;;;;;;;1.30;0.80;;;21.70;49.00;;;25.64;32.58;102571.44;5115426;28;20054;-11
2021/10/07 09:44:07;;;;;;;0.95;0.80;;;21.60;49.00;;;25.64;32.57;102569.63;5115230;28;20077;-11
2021/10/07 09:46:46;;;;;;;0.95;0.70;;;21.60;49.00;;;25.67;32.49;102574.81;5096847;28;20468;-11
2021/10/07 09:49:33;;;;;;;1.02;0.90;;;21.60;48.90;;;25.67;32.41;102577.47;5115125;28;20044;-11
2021/10/07 09:52:01;;;;;;;2.05;0.70;;;21.70;48.70;;;25.65;32.34;102574.03;5130786;28;20047;-11
2021/10/07 09:54:35;;;;;;;0.77;0.77;;;21.80;48.60;;;25.67;32.47;102580.16;5114909;28;20096;-11
2021/10/07 09:57:03;;;;;;;1.00;0.63;;;21.80;48.60;;;25.68;32.45;102581.03;5112839;28;20494;-11
2021/10/07 09:59:32;;;;;;;1.05;0.55;;;21.90;48.50;;;25.65;32.54;102584.75;5114881;28;20091;-11
2021/10/07 10:01:59;;;;;;;1.58;0.82;;;21.90;48.50;;;25.65;32.47;102576.72;5114902;28;20059;-11
2021/10/07 10:04:27;;;;;;;1.90;0.70;;;21.90;48.40;;;25.70;32.46;102581.81;5115397;28;20044;-11
2021/10/07 10:06:55;;;;;;;0.70;0.70;;;21.90;48.40;;;25.68;32.61;102576.53;5115144;28;20040;-11
2021/10/07 10:09:23;;;;;;;2.00;1.17;;;21.90;48.50;;;25.66;32.54;102575.78;5114624;28;20514;-11
2021/10/07 10:11:48;;;;;;;0.65;0.65;;;21.90;48.40;;;25.69;32.56;102578.28;5112569;28;20047;-11
2021/10/07 10:14:14;;;;;;;1.08;0.90;;;21.90;48.40;;;25.68;32.42;102583.72;5114921;28;20055;-11
2021/10/07 10:16:41;;;;;;;0.70;0.70;;;21.80;48.40;;;25.70;32.45;102581.81;5096290;28;20048;-11